createdAt,value
2023-03-05T00:01:34.426Z,67.85
2023-03-05T00:04:03.742Z,68.11
2023-03-05T00:06:32.914Z,68.09
2023-03-05T00:09:01.235Z,68.35
2023-03-05T00:11:31.068Z,68.48
2023-03-05T00:13:59.784Z,68.47
2023-03-05T00:16:29.411Z,68.52
2023-03-05T00:18:58.624Z,68.89
2023-03-05T00:21:30.705Z,69.04
2023-03-05T00:23:59.683Z,69.29
2023-03-05T00:26:28.564Z,69.37
2023-03-05T00:28:58.405Z,69.44
2023-03-05T00:31:31.439Z,69.51
2023-03-05T00:34:02.229Z,69.44
2023-03-05T00:36:30.361Z,69.61
2023-03-05T00:38:58.868Z,69.69
2023-03-05T00:41:27.381Z,69.59
2023-03-05T00:43:55.310Z,69.62
2023-03-05T00:46:24.176Z,69.63
2023-03-05T00:48:51.800Z,69.73
2023-03-05T00:51:19.538Z,69.88
2023-03-05T00:53:47.348Z,69.94
2023-03-05T00:56:15.070Z,70.04
2023-03-05T00:58:42.837Z,70.27
2023-03-05T01:01:10.947Z,70.14
2023-03-05T01:03:38.648Z,70.12
2023-03-05T01:06:09.137Z,70.13
2023-03-05T01:08:37.479Z,70.14
2023-03-05T01:11:06.633Z,70.22
2023-03-05T01:13:34.382Z,70.25
2023-03-05T01:16:02.554Z,70.31
2023-03-05T01:18:30.304Z,70.17
2023-03-05T01:20:58.157Z,70.00
2023-03-05T01:23:25.803Z,70.03
2023-03-05T01:25:58.215Z,70.02
2023-03-05T01:28:27.043Z,69.99
2023-03-05T01:30:54.688Z,69.88
2023-03-05T01:33:22.392Z,70.07
2023-03-05T01:35:50.907Z,69.90
2023-03-05T01:38:19.269Z,70.05
2023-03-05T01:40:47.028Z,69.88
2023-03-05T01:43:14.594Z,69.86
2023-03-05T01:46:19.974Z,69.96
2023-03-05T01:48:52.015Z,70.06
2023-03-05T01:51:21.338Z,70.27
2023-03-05T01:53:49.178Z,70.17
2023-03-05T01:56:18.001Z,70.36
2023-03-05T01:58:46.536Z,70.20
2023-03-05T02:01:14.454Z,70.29
2023-03-05T02:03:43.457Z,70.57
2023-03-05T02:06:11.533Z,70.42
2023-03-05T02:08:39.239Z,70.55
2023-03-05T02:11:07.278Z,70.26
2023-03-05T02:13:39.724Z,70.46
2023-03-05T02:16:08.461Z,70.30
2023-03-05T02:18:36.434Z,70.42
2023-03-05T02:21:13.088Z,70.35
2023-03-05T02:23:41.390Z,70.32
2023-03-05T02:26:11.811Z,70.47
2023-03-05T02:28:43.822Z,70.55
2023-03-05T02:31:15.962Z,70.74
2023-03-05T02:33:43.738Z,70.74
2023-03-05T02:36:13.104Z,70.84
2023-03-05T02:38:42.402Z,70.81
2023-03-05T02:41:10.752Z,70.71
2023-03-05T02:43:38.552Z,70.65
2023-03-05T02:46:07.205Z,70.66
2023-03-05T02:48:35.043Z,70.43
2023-03-05T02:51:04.460Z,70.35
2023-03-05T02:53:32.166Z,70.37
2023-03-05T02:55:59.981Z,70.42
2023-03-05T02:58:27.685Z,70.45
2023-03-05T03:00:55.427Z,70.50
2023-03-05T03:03:23.228Z,70.60
2023-03-05T03:05:51.019Z,70.49
2023-03-05T03:08:18.648Z,70.58
2023-03-05T03:10:46.251Z,70.58
2023-03-05T03:13:13.988Z,70.52
2023-03-05T03:15:41.632Z,70.45
2023-03-05T03:18:09.327Z,70.48
2023-03-05T03:20:40.336Z,70.47
2023-03-05T03:23:08.517Z,70.52
2023-03-05T03:25:36.303Z,70.40
2023-03-05T03:28:04.149Z,70.33
2023-03-05T03:30:31.860Z,70.35
2023-03-05T03:32:59.606Z,70.39
2023-03-05T03:35:27.272Z,70.19
2023-03-05T03:37:54.915Z,70.22
2023-03-05T03:40:22.915Z,70.44
2023-03-05T03:42:53.222Z,70.49
2023-03-05T03:45:23.261Z,70.27
2023-03-05T03:47:51.502Z,70.40
2023-03-05T03:50:19.925Z,70.45
2023-03-05T03:52:47.645Z,70.50
2023-03-05T03:55:15.419Z,70.65
2023-03-05T03:57:44.612Z,70.70
2023-03-05T04:00:13.040Z,70.98
2023-03-05T04:02:40.955Z,71.20
2023-03-05T04:05:09.290Z,71.14
2023-03-05T04:07:37.030Z,71.19
2023-03-05T04:10:05.654Z,70.96
2023-03-05T04:12:33.821Z,71.26
2023-03-05T04:15:01.598Z,71.20
2023-03-05T04:17:29.324Z,71.35
2023-03-05T04:19:57.087Z,71.32
2023-03-05T04:22:24.799Z,71.39
2023-03-05T04:24:52.536Z,71.09
2023-03-05T04:27:20.304Z,71.14
2023-03-05T04:29:48.051Z,70.97
2023-03-05T04:32:15.866Z,71.01
2023-03-05T04:34:43.538Z,71.12
2023-03-05T04:37:11.224Z,70.95
2023-03-05T04:39:39.385Z,71.13
2023-03-05T04:42:07.342Z,71.14
2023-03-05T04:44:35.140Z,71.10
2023-03-05T04:47:02.807Z,70.98
2023-03-05T04:49:31.013Z,71.11
2023-03-05T04:51:58.777Z,71.14
2023-03-05T04:54:26.550Z,70.71
2023-03-05T04:56:54.238Z,70.42
2023-03-05T04:59:21.916Z,70.53
2023-03-05T05:01:49.673Z,70.76
2023-03-05T05:04:17.445Z,71.08
2023-03-05T05:06:45.120Z,71.03
2023-03-05T05:09:12.860Z,71.16
2023-03-05T05:11:41.213Z,71.31
2023-03-05T05:14:08.979Z,71.58
2023-03-05T05:16:36.753Z,71.69
2023-03-05T05:19:04.914Z,71.66
2023-03-05T05:21:32.740Z,71.75
2023-03-05T05:24:00.390Z,71.56
2023-03-05T05:26:29.965Z,71.59
2023-03-05T05:28:57.682Z,71.68
2023-03-05T05:31:25.393Z,71.62
2023-03-05T05:33:53.179Z,71.60
2023-03-05T05:36:23.313Z,71.53
2023-03-05T05:38:51.323Z,71.39
2023-03-05T05:41:20.231Z,71.48
2023-03-05T05:43:48.108Z,71.58
2023-03-05T05:46:18.840Z,71.63
2023-03-05T05:48:47.604Z,71.24
2023-03-05T05:51:23.824Z,70.69
2023-03-05T05:53:51.795Z,70.93
2023-03-05T05:56:20.298Z,70.90
2023-03-05T05:58:50.095Z,70.86
2023-03-05T06:01:23.813Z,70.47
2023-03-05T06:03:51.794Z,70.77
2023-03-05T06:06:21.740Z,70.80
2023-03-05T06:08:50.098Z,70.63
2023-03-05T06:11:19.399Z,70.75
2023-03-05T06:13:48.529Z,70.74
2023-03-05T06:16:19.442Z,70.58
2023-03-05T06:18:47.616Z,70.70
2023-03-05T06:21:17.386Z,70.49
2023-03-05T06:23:46.443Z,70.63
2023-03-05T06:26:17.409Z,70.58
2023-03-05T06:28:45.517Z,70.69
2023-03-05T06:31:16.043Z,70.62
2023-03-05T06:33:44.486Z,70.77
2023-03-05T06:36:16.352Z,70.69
2023-03-05T06:38:44.626Z,70.68
2023-03-05T06:41:14.861Z,70.49
2023-03-05T06:43:45.041Z,70.59
2023-03-05T06:46:24.286Z,70.52
2023-03-05T06:48:52.908Z,70.66
2023-03-05T06:51:23.590Z,70.97
2023-03-05T06:53:52.314Z,70.93
2023-03-05T06:56:20.993Z,71.06
2023-03-05T06:58:50.512Z,71.13
2023-03-05T07:01:19.072Z,71.19
2023-03-05T07:03:50.953Z,71.08
2023-03-05T07:06:19.299Z,71.02
2023-03-05T07:08:47.628Z,70.58
2023-03-05T07:11:21.055Z,70.63
2023-03-05T07:13:49.450Z,70.35
2023-03-05T07:16:23.325Z,70.19
2023-03-05T07:18:51.048Z,70.24
2023-03-05T07:21:24.148Z,70.20
2023-03-05T07:23:54.695Z,70.22
2023-03-05T07:26:23.336Z,69.99
2023-03-05T07:28:51.030Z,69.63
2023-03-05T07:31:21.936Z,69.74
2023-03-05T07:33:51.379Z,69.90
2023-03-05T07:36:19.569Z,69.96
2023-03-05T07:38:47.552Z,69.94
2023-03-05T07:41:22.480Z,70.00
2023-03-05T07:43:52.237Z,69.90
2023-03-05T07:46:22.449Z,69.90
2023-03-05T07:48:50.306Z,70.32
2023-03-05T07:51:20.953Z,70.42
2023-03-05T07:53:50.318Z,70.58
2023-03-05T07:56:26.662Z,70.84
2023-03-05T07:58:54.580Z,70.79
2023-03-05T08:01:22.449Z,71.17
2023-03-05T08:03:50.327Z,70.97
2023-03-05T08:06:18.150Z,70.93
2023-03-05T08:08:45.917Z,70.95
2023-03-05T08:11:16.799Z,72.13
2023-03-05T08:13:46.095Z,73.80
2023-03-05T08:16:20.091Z,72.85
2023-03-05T08:18:48.534Z,72.26
2023-03-05T08:21:28.070Z,73.64
2023-03-05T08:23:59.618Z,71.94
2023-03-05T08:26:30.556Z,73.36
2023-03-05T08:28:59.396Z,74.17
2023-03-05T08:31:28.809Z,73.29
2023-03-05T08:33:58.336Z,74.60
2023-03-05T08:36:26.136Z,73.72
2023-03-05T08:38:53.919Z,73.83
2023-03-05T08:41:21.717Z,74.32
2023-03-05T08:43:49.932Z,75.69
2023-03-05T08:46:18.236Z,74.11
2023-03-05T08:48:46.106Z,72.89
2023-03-05T08:51:16.222Z,71.66
2023-03-05T08:53:45.696Z,73.90
2023-03-05T08:56:14.524Z,75.22
2023-03-05T08:58:42.297Z,74.81
2023-03-05T09:01:10.212Z,70.83
2023-03-05T09:03:38.258Z,69.88
2023-03-05T09:06:09.314Z,70.04
2023-03-05T09:08:37.488Z,68.62
2023-03-05T09:11:09.356Z,67.71
2023-03-05T09:13:37.730Z,67.25
2023-03-05T09:16:08.524Z,67.87
2023-03-05T09:18:37.774Z,67.29
2023-03-05T09:21:07.091Z,68.92
2023-03-05T09:23:35.148Z,67.26
2023-03-05T09:26:03.536Z,68.03
2023-03-05T09:28:31.258Z,65.57
2023-03-05T09:30:59.018Z,70.01
2023-03-05T09:33:26.753Z,66.80
2023-03-05T09:35:54.574Z,65.39
2023-03-05T09:38:22.534Z,66.12
2023-03-05T09:41:19.772Z,62.66
2023-03-05T09:44:24.493Z,63.94
2023-03-05T09:47:02.653Z,62.07
2023-03-05T09:50:00.037Z,64.58
2023-03-05T09:52:37.814Z,65.80
2023-03-05T09:55:12.378Z,65.44
2023-03-05T09:57:48.105Z,64.41
2023-03-05T10:00:35.535Z,67.29
2023-03-05T10:03:08.290Z,59.39
2023-03-05T10:05:55.111Z,61.92
2023-03-05T10:08:29.709Z,61.36
2023-03-05T10:10:58.201Z,59.82
2023-03-05T10:13:31.545Z,61.26
2023-03-05T10:16:27.695Z,60.68
2023-03-05T10:19:14.149Z,60.58
2023-03-05T10:21:54.628Z,60.91
2023-03-05T10:24:48.317Z,60.90
2023-03-05T10:27:22.341Z,60.14
2023-03-05T10:30:05.092Z,60.99
2023-03-05T10:32:57.160Z,60.87
2023-03-05T10:35:33.794Z,60.54
2023-03-05T10:38:32.797Z,60.50
2023-03-05T10:41:09.484Z,60.07
2023-03-05T10:43:37.216Z,60.57
2023-03-05T10:46:06.235Z,60.43
2023-03-05T10:48:42.716Z,60.69
2023-03-05T10:51:16.747Z,60.41
2023-03-05T10:53:54.289Z,60.52
2023-03-05T10:56:25.481Z,59.54
2023-03-05T10:58:55.759Z,60.09
2023-03-05T11:01:27.258Z,59.73
2023-03-05T11:04:00.595Z,59.89
2023-03-05T11:06:35.777Z,59.79
2023-03-05T11:09:21.800Z,59.89
2023-03-05T11:12:05.589Z,59.66
2023-03-05T11:14:35.079Z,59.71
2023-03-05T11:17:23.778Z,59.86
2023-03-05T11:19:51.479Z,59.70
2023-03-05T11:22:24.414Z,59.75
2023-03-05T11:25:20.174Z,59.57
2023-03-05T11:27:55.781Z,58.97
2023-03-05T11:30:30.162Z,59.19
2023-03-05T11:33:23.721Z,58.95
2023-03-05T11:35:53.509Z,57.94
2023-03-05T11:38:27.736Z,58.71
2023-03-05T11:40:58.341Z,57.89
2023-03-05T11:43:27.384Z,57.79
2023-03-05T11:46:00.684Z,57.30
2023-03-05T11:48:36.010Z,56.21
2023-03-05T11:51:09.624Z,56.24
2023-03-05T11:53:39.995Z,56.18
2023-03-05T11:56:22.118Z,55.95
2023-03-05T11:59:00.436Z,55.43
2023-03-05T12:01:32.928Z,55.33
2023-03-05T12:04:01.554Z,55.22
2023-03-05T12:06:53.082Z,55.41
2023-03-05T12:09:39.492Z,54.75
2023-03-05T12:12:33.383Z,54.21
2023-03-05T12:15:04.078Z,53.90
2023-03-05T12:17:38.584Z,54.09
2023-03-05T12:20:24.669Z,53.57
2023-03-05T12:22:52.711Z,53.31
2023-03-05T12:25:26.972Z,53.54
2023-03-05T12:27:55.062Z,53.25
2023-03-05T12:30:43.574Z,53.40
2023-03-05T12:33:39.195Z,52.41
2023-03-05T12:36:22.381Z,53.16
2023-03-05T12:38:57.425Z,53.22
2023-03-05T12:41:27.581Z,53.78
2023-03-05T12:44:07.923Z,53.07
2023-03-05T12:46:45.377Z,53.61
2023-03-05T12:49:18.985Z,53.52
2023-03-05T12:51:52.249Z,53.71
2023-03-05T12:54:23.069Z,54.45
2023-03-05T12:56:53.291Z,54.62
2023-03-05T12:59:24.411Z,54.57
2023-03-05T13:02:01.684Z,54.50
2023-03-05T13:04:34.855Z,54.43
2023-03-05T13:07:06.996Z,54.08
2023-03-05T13:09:37.515Z,53.70
2023-03-05T13:12:11.315Z,53.99
2023-03-05T13:14:43.024Z,53.69
2023-03-05T13:17:32.151Z,53.70
2023-03-05T13:20:01.359Z,53.08
2023-03-05T13:22:30.855Z,53.40
2023-03-05T13:25:24.774Z,53.14
2023-03-05T13:27:52.536Z,52.24
2023-03-05T13:30:27.268Z,52.87
2023-03-05T13:33:04.192Z,52.98
2023-03-05T13:35:35.650Z,52.90
2023-03-05T13:38:03.399Z,52.64
2023-03-05T13:40:33.973Z,52.82
2023-03-05T13:43:21.757Z,52.81
2023-03-05T13:45:56.077Z,52.53
2023-03-05T13:48:24.215Z,52.39
2023-03-05T13:50:58.270Z,52.53
2023-03-05T13:53:29.433Z,52.40
2023-03-05T13:56:09.094Z,52.54
2023-03-05T13:58:45.626Z,51.91
2023-03-05T14:01:31.245Z,50.86
2023-03-05T14:04:13.805Z,49.83
2023-03-05T14:07:08.650Z,50.70
2023-03-05T14:09:42.075Z,50.20
2023-03-05T14:12:25.300Z,50.24
2023-03-05T14:14:53.017Z,49.50
2023-03-05T14:17:38.182Z,49.51
2023-03-05T14:20:20.716Z,49.11
2023-03-05T14:22:52.182Z,48.99
2023-03-05T14:25:38.328Z,49.06
2023-03-05T14:28:29.546Z,48.62
2023-03-05T14:30:58.395Z,48.34
2023-03-05T14:33:32.854Z,48.75
2023-03-05T14:36:03.095Z,48.42
2023-03-05T14:38:34.810Z,48.11
2023-03-05T14:41:36.915Z,48.10
2023-03-05T14:44:12.695Z,47.78
2023-03-05T14:46:40.603Z,48.06
2023-03-05T14:49:08.590Z,48.31
2023-03-05T14:51:43.640Z,48.51
2023-03-05T14:54:39.161Z,48.59
2023-03-05T14:57:07.315Z,48.36
2023-03-05T14:59:35.094Z,48.86
2023-03-05T15:02:02.920Z,48.78
2023-03-05T15:04:30.893Z,48.33
2023-03-05T15:06:58.576Z,48.41
2023-03-05T15:09:28.062Z,48.49
2023-03-05T15:11:55.779Z,48.59
2023-03-05T15:14:23.548Z,48.62
2023-03-05T15:16:51.485Z,48.30
2023-03-05T15:19:19.492Z,48.02
2023-03-05T15:21:47.186Z,48.84
2023-03-05T15:24:15.881Z,48.94
2023-03-05T15:26:43.668Z,49.05
2023-03-05T15:29:11.398Z,49.09
2023-03-05T15:31:41.579Z,48.58
2023-03-05T15:34:09.427Z,48.30
2023-03-05T15:36:37.148Z,49.16
2023-03-05T15:39:04.990Z,49.25
2023-03-05T15:41:32.901Z,49.31
2023-03-05T15:44:00.642Z,49.45
2023-03-05T15:46:28.582Z,49.35
2023-03-05T15:48:56.572Z,49.62
2023-03-05T15:51:24.359Z,49.53
2023-03-05T15:53:52.137Z,49.25
2023-03-05T15:56:20.679Z,49.50
2023-03-05T15:58:50.398Z,49.52
2023-03-05T16:01:20.584Z,49.75
2023-03-05T16:03:48.598Z,49.82
2023-03-05T16:06:21.482Z,49.81
2023-03-05T16:08:49.936Z,49.83
2023-03-05T16:11:19.005Z,50.12
2023-03-05T16:13:46.832Z,50.15
2023-03-05T16:16:15.093Z,50.22
2023-03-05T16:18:46.025Z,50.29
2023-03-05T16:21:15.080Z,49.92
2023-03-05T16:23:42.911Z,49.96
2023-03-05T16:26:11.740Z,49.60
2023-03-05T16:28:41.092Z,50.21
2023-03-05T16:31:08.916Z,50.31
2023-03-05T16:33:36.885Z,50.61
2023-03-05T16:36:22.245Z,50.98
2023-03-05T16:38:51.606Z,51.26
2023-03-05T16:41:20.790Z,51.17
2023-03-05T16:43:49.431Z,51.74
2023-03-05T16:46:17.763Z,52.19
2023-03-05T16:48:46.004Z,52.47
2023-03-05T16:51:14.391Z,52.77
2023-03-05T16:53:42.533Z,52.92
2023-03-05T16:56:11.350Z,53.09
2023-03-05T16:58:41.725Z,53.40
2023-03-05T17:01:14.763Z,53.73
2023-03-05T17:03:44.583Z,54.01
2023-03-05T17:06:14.766Z,54.30
2023-03-05T17:08:44.367Z,55.05
2023-03-05T17:11:12.720Z,55.24
2023-03-05T17:13:41.780Z,55.90
2023-03-05T17:16:11.048Z,56.24
2023-03-05T17:18:39.422Z,56.39
2023-03-05T17:21:08.905Z,56.47
2023-03-05T17:23:38.221Z,56.68
2023-03-05T17:26:08.906Z,56.81
2023-03-05T17:28:37.215Z,56.89
2023-03-05T17:31:05.684Z,56.93
2023-03-05T17:33:33.944Z,57.18
2023-03-05T17:36:03.036Z,57.40
2023-03-05T17:38:31.539Z,57.42
2023-03-05T17:40:59.288Z,57.50
2023-03-05T17:43:26.989Z,57.60
2023-03-05T17:45:54.811Z,57.77
2023-03-05T17:48:22.495Z,58.06
2023-03-05T17:50:50.244Z,58.05
2023-03-05T17:53:18.413Z,58.30
2023-03-05T17:55:46.091Z,58.31
2023-03-05T17:58:13.915Z,58.46
2023-03-05T18:00:41.819Z,58.51
2023-03-05T18:03:09.632Z,58.56
2023-03-05T18:05:37.643Z,58.71
2023-03-05T18:08:05.767Z,58.89
2023-03-05T18:10:34.288Z,59.09
2023-03-05T18:13:02.154Z,59.12
2023-03-05T18:15:30.837Z,59.35
2023-03-05T18:17:59.689Z,59.51
2023-03-05T18:20:34.679Z,59.57
2023-03-05T18:23:03.594Z,59.92
2023-03-05T18:25:32.208Z,59.92
2023-03-05T18:28:05.511Z,59.86
2023-03-05T18:30:33.859Z,59.73
2023-03-05T18:33:02.296Z,59.67
2023-03-05T18:35:30.396Z,59.70
2023-03-05T18:37:58.780Z,59.88
2023-03-05T18:40:29.262Z,59.95
2023-03-05T18:42:57.128Z,60.03
2023-03-05T18:45:24.988Z,60.07
2023-03-05T18:47:55.238Z,60.14
2023-03-05T18:50:25.468Z,60.14
2023-03-05T18:52:53.345Z,59.86
2023-03-05T18:55:25.100Z,59.88
2023-03-05T18:57:53.032Z,59.77
2023-03-05T19:00:24.373Z,59.72
2023-03-05T19:02:53.061Z,59.67
2023-03-05T19:05:21.655Z,59.84
2023-03-05T19:07:49.903Z,59.91
2023-03-05T19:10:18.821Z,59.97
2023-03-05T19:12:56.470Z,60.18
2023-03-05T19:15:24.823Z,60.31
2023-03-05T19:17:52.755Z,60.53
2023-03-05T19:20:20.686Z,60.65
2023-03-05T19:22:51.854Z,60.82
2023-03-05T19:25:20.091Z,61.10
2023-03-05T19:27:47.859Z,61.03
2023-03-05T19:30:17.392Z,61.42
2023-03-05T19:32:48.247Z,61.37
2023-03-05T19:35:17.467Z,61.51
2023-03-05T19:37:47.024Z,61.39
2023-03-05T19:40:15.871Z,61.55
2023-03-05T19:42:43.912Z,61.82
2023-03-05T19:45:12.137Z,61.72
2023-03-05T19:47:39.882Z,61.87
2023-03-05T19:50:08.477Z,61.92
2023-03-05T19:52:36.300Z,62.07
2023-03-05T19:55:05.145Z,62.37
2023-03-05T19:57:33.495Z,62.33
2023-03-05T20:00:01.330Z,63.08
2023-03-05T20:02:29.451Z,64.04
2023-03-05T20:04:57.297Z,63.56
2023-03-05T20:07:25.122Z,63.81
2023-03-05T20:09:54.297Z,63.85
2023-03-05T20:12:23.397Z,64.53
2023-03-05T20:14:51.250Z,64.18
2023-03-05T20:17:19.118Z,64.34
2023-03-05T20:19:46.855Z,64.21
2023-03-05T20:22:14.562Z,64.31
2023-03-05T20:24:42.360Z,64.03
2023-03-05T20:27:10.050Z,63.93
2023-03-05T20:29:37.795Z,64.05
2023-03-05T20:32:05.739Z,64.40
2023-03-05T20:34:33.575Z,64.57
2023-03-05T20:37:01.286Z,64.59
2023-03-05T20:39:28.952Z,64.27
2023-03-05T20:41:56.677Z,64.11
2023-03-05T20:44:24.495Z,64.26
2023-03-05T20:47:03.764Z,64.33
2023-03-05T20:49:31.697Z,64.38
2023-03-05T20:51:59.309Z,64.44
2023-03-05T20:54:28.391Z,64.58
2023-03-05T20:56:56.015Z,65.25
2023-03-05T20:59:24.457Z,64.87
2023-03-05T21:01:52.195Z,64.97
2023-03-05T21:04:20.077Z,65.07
2023-03-05T21:06:48.832Z,65.05
2023-03-05T21:09:16.632Z,65.79
2023-03-05T21:11:44.398Z,65.43
2023-03-05T21:14:12.332Z,65.86
2023-03-05T21:16:40.302Z,65.86
2023-03-05T21:19:07.991Z,65.60
2023-03-05T21:21:35.702Z,66.63
2023-03-05T21:24:03.396Z,66.07
2023-03-05T21:26:31.025Z,65.98
2023-03-05T21:28:58.880Z,65.96
2023-03-05T21:31:26.703Z,66.04
2023-03-05T21:33:54.435Z,66.51
2023-03-05T21:36:22.301Z,66.43
2023-03-05T21:38:50.687Z,66.66
2023-03-05T21:41:19.278Z,66.58
2023-03-05T21:43:47.306Z,66.51
2023-03-05T21:46:15.583Z,66.59
2023-03-05T21:48:43.463Z,66.33
2023-03-05T21:51:13.728Z,66.33
2023-03-05T21:53:41.480Z,66.00
2023-03-05T21:56:19.051Z,65.51
2023-03-05T21:58:46.945Z,65.08
2023-03-05T22:01:17.284Z,65.03
2023-03-05T22:03:45.087Z,64.81
2023-03-05T22:06:15.992Z,64.64
2023-03-05T22:08:44.069Z,64.25
2023-03-05T22:11:14.313Z,64.24
2023-03-05T22:13:42.200Z,63.87
2023-03-05T22:16:13.402Z,63.71
2023-03-05T22:18:41.110Z,63.50
2023-03-05T22:21:19.346Z,63.59
2023-03-05T22:23:47.407Z,63.54
2023-03-05T22:26:15.289Z,63.51
2023-03-05T22:28:43.755Z,63.49
2023-03-05T22:31:11.851Z,63.21
2023-03-05T22:33:39.568Z,63.46
2023-03-05T22:36:11.910Z,62.79
2023-03-05T22:38:40.083Z,62.46
2023-03-05T22:41:10.163Z,62.33
2023-03-05T22:43:38.682Z,62.05
2023-03-05T22:46:15.795Z,61.20
2023-03-05T22:48:44.349Z,61.54
2023-03-05T22:51:13.277Z,61.79
2023-03-05T22:53:41.555Z,61.92
2023-03-05T22:56:11.795Z,61.87
2023-03-05T22:58:39.835Z,61.94
2023-03-05T23:01:15.663Z,61.61
2023-03-05T23:03:43.848Z,61.71
2023-03-05T23:06:11.818Z,61.56
2023-03-05T23:08:39.593Z,61.08
2023-03-05T23:11:12.279Z,61.38
2023-03-05T23:13:41.650Z,61.00
2023-03-05T23:16:10.581Z,61.25
2023-03-05T23:18:38.468Z,61.02
2023-03-05T23:21:06.421Z,60.49
2023-03-05T23:23:34.495Z,59.44
2023-03-05T23:26:02.372Z,60.51
2023-03-05T23:28:30.090Z,60.55
2023-03-05T23:30:58.886Z,60.95
2023-03-05T23:33:26.884Z,60.87
2023-03-05T23:36:00.241Z,60.94
2023-03-05T23:38:30.618Z,61.02
2023-03-05T23:41:01.613Z,61.13
2023-03-05T23:43:30.376Z,61.18
2023-03-05T23:45:58.334Z,61.11
2023-03-05T23:48:27.548Z,60.92
2023-03-05T23:50:56.211Z,60.89
2023-03-05T23:53:27.241Z,60.72
2023-03-05T23:55:56.492Z,60.82
2023-03-05T23:58:24.758Z,60.87
